Time;durP1;ratioP1;P1;durP2;ratioP2;P2;SDS_P1;SDS_P2;PMS_P1;PMS_P2;Temp;Humidity;BMP_temperature;BMP_pressure;BME280_temperature;BME280_humidity;BME280_pressure;Samples;Min_cycle;Max_cycle;Signal;HPM_P1;HPM_P2
2024/01/23 00:00:07;;;;;;;;;;;6.50;99.90;;;;;;5005106;28;19913;-61
2024/01/23 00:02:33;;;;;;;;;;;6.50;99.90;;;;;;5023153;28;19924;-62
2024/01/23 00:04:58;;;;;;;;;;;6.40;99.90;;;;;;5022729;28;20003;-62
2024/01/23 00:07:24;;;;;;;;;;;6.40;99.90;;;;;;5023525;28;20397;-62
2024/01/23 00:09:49;;;;;;;;;;;6.50;99.90;;;;;;5022769;28;19924;-62
2024/01/23 00:12:15;;;;;;;;;;;6.50;99.90;;;;;;5023864;28;19920;-61
2024/01/23 00:14:40;;;;;;;;;;;6.40;99.90;;;;;;5030134;28;19920;-61
2024/01/23 00:17:06;;;;;;;;;;;6.40;99.90;;;;;;5024153;28;20016;-61
2024/01/23 00:19:31;;;;;;;;;;;6.40;99.90;;;;;;5022143;28;19948;-62
2024/01/23 00:21:57;;;;;;;;;;;6.40;99.90;;;;;;5022716;28;19915;-62
2024/01/23 00:24:23;;;;;;;;;;;6.40;99.90;;;;;;5022883;28;19917;-61
2024/01/23 00:26:49;;;;;;;;;;;6.40;99.90;;;;;;5023015;28;19992;-62
2024/01/23 00:29:15;;;;;;;;;;;6.40;99.90;;;;;;5022040;28;20041;-61
2024/01/23 00:31:40;;;;;;;;;;;6.40;99.90;;;;;;5022165;28;19920;-61
2024/01/23 00:34:06;;;;;;;;;;;6.40;99.90;;;;;;5022228;28;19917;-61
2024/01/23 00:36:32;;;;;;;;;;;6.40;99.90;;;;;;5022537;28;20450;-62
2024/01/23 00:38:57;;;;;;;;;;;6.40;99.90;;;;;;5022052;28;20684;-62
2024/01/23 00:41:23;;;;;;;;;;;6.40;99.90;;;;;;5022298;28;19913;-62
2024/01/23 00:43:48;;;;;;;;;;;6.40;99.90;;;;;;5022488;28;19913;-62
2024/01/23 00:46:14;;;;;;;;;;;6.40;99.90;;;;;;5022072;28;19995;-61
2024/01/23 00:48:40;;;;;;;;;;;6.30;99.90;;;;;;5022340;28;19913;-61
2024/01/23 00:51:05;;;;;;;;;;;6.30;99.90;;;;;;5021659;28;19925;-62
2024/01/23 00:53:31;;;;;;;;;;;6.30;99.90;;;;;;5022502;28;19921;-62
2024/01/23 00:55:58;;;;;;;;;;;6.30;99.90;;;;;;5021866;28;19974;-62
2024/01/23 00:58:24;;;;;;;;;;;6.30;99.90;;;;;;5022061;28;19992;-62
2024/01/23 01:00:50;;;;;;;;;;;6.30;99.90;;;;;;5021482;28;20449;-62
2024/01/23 01:03:15;;;;;;;;;;;6.20;99.90;;;;;;5021469;28;19979;-62
2024/01/23 01:05:41;;;;;;;;;;;6.30;99.90;;;;;;5021943;28;20322;-61
2024/01/23 01:08:07;;;;;;;;;;;6.20;99.90;;;;;;5021680;28;19917;-62
2024/01/23 01:10:32;;;;;;;;;;;6.20;99.90;;;;;;5021139;28;19918;-62
2024/01/23 01:12:58;;;;;;;;;;;6.20;99.90;;;;;;5021668;28;20325;-62
2024/01/23 01:15:23;;;;;;;;;;;6.20;99.90;;;;;;5021926;28;19916;-62
2024/01/23 01:17:49;;;;;;;;;;;6.20;99.90;;;;;;5020564;28;19913;-62
2024/01/23 01:20:15;;;;;;;;;;;6.20;99.90;;;;;;5013641;28;20428;-62
2024/01/23 01:22:41;;;;;;;;;;;6.20;99.90;;;;;;5007568;28;19920;-61
2024/01/23 01:25:08;;;;;;;;;;;6.20;99.90;;;;;;5021453;28;19910;-61
2024/01/23 01:27:34;;;;;;;;;;;6.20;99.90;;;;;;5021984;28;20273;-61
2024/01/23 01:30:00;;;;;;;;;;;6.20;99.90;;;;;;5021450;28;19921;-61
2024/01/23 01:32:25;;;;;;;;;;;6.20;99.90;;;;;;5021795;28;19913;-61
2024/01/23 01:34:51;;;;;;;;;;;6.20;99.90;;;;;;5021690;28;19917;-61
2024/01/23 01:37:16;;;;;;;;;;;6.20;99.90;;;;;;5021516;28;19913;-61
2024/01/23 01:39:42;;;;;;;;;;;6.10;99.90;;;;;;5021509;28;19989;-61
2024/01/23 01:42:07;;;;;;;;;;;6.20;99.90;;;;;;5021431;28;19931;-62
2024/01/23 01:44:34;;;;;;;;;;;6.20;99.90;;;;;;5021786;28;19917;-62
2024/01/23 01:47:00;;;;;;;;;;;6.20;99.90;;;;;;5021696;28;19936;-61
2024/01/23 01:49:25;;;;;;;;;;;6.20;99.90;;;;;;5021668;28;20444;-61
2024/01/23 01:51:51;;;;;;;;;;;6.10;99.90;;;;;;5021592;28;19917;-61
2024/01/23 01:54:17;;;;;;;;;;;6.10;99.90;;;;;;5021310;28;20397;-61
2024/01/23 01:56:43;;;;;;;;;;;6.10;99.90;;;;;;5021866;28;20388;-61
2024/01/23 01:59:09;;;;;;;;;;;6.10;99.90;;;;;;5021480;28;20268;-61
2024/01/23 02:01:35;;;;;;;;;;;6.10;99.90;;;;;;5036506;28;19922;-61
2024/01/23 02:04:01;;;;;;;;;;;6.20;99.90;;;;;;5021257;28;19968;-62
2024/01/23 02:06:27;;;;;;;;;;;6.10;99.90;;;;;;5021696;28;20393;-62
2024/01/23 02:08:54;;;;;;;;;;;6.10;99.90;;;;;;5010779;28;20314;-61
2024/01/23 02:11:20;;;;;;;;;;;6.10;99.90;;;;;;5013205;28;19913;-62
2024/01/23 02:13:46;;;;;;;;;;;6.10;99.90;;;;;;5023408;28;19947;-62
2024/01/23 02:16:11;;;;;;;;;;;6.10;99.90;;;;;;5024357;28;20311;-61
2024/01/23 02:18:37;;;;;;;;;;;6.10;99.90;;;;;;5018558;28;19910;-62
2024/01/23 02:21:02;;;;;;;;;;;6.10;99.90;;;;;;5021781;28;20016;-61
2024/01/23 02:23:28;;;;;;;;;;;6.10;99.90;;;;;;5024602;28;19913;-62
2024/01/23 02:25:54;;;;;;;;;;;6.10;99.90;;;;;;5024115;28;19909;-62
2024/01/23 02:28:19;;;;;;;;;;;6.10;99.90;;;;;;5024489;28;19974;-61
2024/01/23 02:30:45;;;;;;;;;;;6.10;99.90;;;;;;5024192;28;20361;-61
2024/01/23 02:33:10;;;;;;;;;;;6.10;99.90;;;;;;5024199;28;19920;-62
2024/01/23 02:35:37;;;;;;;;;;;6.10;99.90;;;;;;5024588;28;20364;-62
2024/01/23 02:38:03;;;;;;;;;;;6.10;99.90;;;;;;5023924;28;19920;-61
2024/01/23 02:40:28;;;;;;;;;;;6.10;99.90;;;;;;5023750;28;19950;-61
2024/01/23 02:42:54;;;;;;;;;;;6.10;99.90;;;;;;5006302;28;19940;-62
2024/01/23 02:45:20;;;;;;;;;;;6.10;99.90;;;;;;5024530;28;19956;-61
2024/01/23 02:47:45;;;;;;;;;;;6.00;99.90;;;;;;5024326;28;19951;-61
2024/01/23 02:50:11;;;;;;;;;;;6.10;99.90;;;;;;5024077;28;19935;-62
2024/01/23 02:52:36;;;;;;;;;;;6.00;99.90;;;;;;5039394;28;19909;-61
2024/01/23 02:55:03;;;;;;;;;;;6.00;99.90;;;;;;5023852;28;19970;-61
2024/01/23 02:57:29;;;;;;;;;;;6.00;99.90;;;;;;5024061;28;19947;-62
2024/01/23 02:59:54;;;;;;;;;;;6.00;99.90;;;;;;5023832;28;20588;-61
2024/01/23 03:02:23;;;;;;;;;;;6.00;99.90;;;;;;5024169;28;20003;-62
2024/01/23 03:04:49;;;;;;;;;;;6.00;99.90;;;;;;5023911;28;19913;-61
2024/01/23 03:07:15;;;;;;;;;;;6.00;99.90;;;;;;5023977;28;20858;-61
2024/01/23 03:09:43;;;;;;;;;;;6.00;99.90;;;;;;5023633;28;19951;-62
2024/01/23 03:12:19;;;;;;;;;;;6.00;99.90;;;;;;5023126;28;20328;-61
2024/01/23 03:14:45;;;;;;;;;;;6.00;99.90;;;;;;5023814;28;19930;-61
2024/01/23 03:17:11;;;;;;;;;;;6.00;99.90;;;;;;5023752;28;20667;-61
2024/01/23 03:19:36;;;;;;;;;;;6.00;99.90;;;;;;5023565;28;19970;-61
2024/01/23 03:22:03;;;;;;;;;;;6.00;99.90;;;;;;5023557;28;19916;-62
2024/01/23 03:24:28;;;;;;;;;;;6.00;99.90;;;;;;5022690;28;19944;-62
2024/01/23 03:26:54;;;;;;;;;;;5.90;99.90;;;;;;5039196;28;19952;-61
2024/01/23 03:29:19;;;;;;;;;;;6.00;99.90;;;;;;5015301;28;19921;-62
2024/01/23 03:31:45;;;;;;;;;;;6.00;99.90;;;;;;5023471;28;19913;-62
2024/01/23 03:34:10;;;;;;;;;;;6.00;99.90;;;;;;5023502;28;19917;-61
2024/01/23 03:36:36;;;;;;;;;;;5.90;99.90;;;;;;5023657;28;20339;-61
2024/01/23 03:39:01;;;;;;;;;;;5.90;99.90;;;;;;5023333;28;20004;-62
2024/01/23 03:41:27;;;;;;;;;;;5.90;99.90;;;;;;5023392;28;19910;-62
2024/01/23 03:43:52;;;;;;;;;;;5.90;99.90;;;;;;5023563;28;19914;-62
2024/01/23 03:46:18;;;;;;;;;;;5.90;99.90;;;;;;5023248;28;19972;-61
2024/01/23 03:48:43;;;;;;;;;;;5.90;99.90;;;;;;5023262;28;19932;-62
2024/01/23 03:51:09;;;;;;;;;;;5.90;99.90;;;;;;5022728;28;19917;-62
2024/01/23 03:53:34;;;;;;;;;;;5.90;99.90;;;;;;5023121;28;19925;-62
2024/01/23 03:56:00;;;;;;;;;;;5.90;99.90;;;;;;5022921;28;19913;-61
2024/01/23 03:58:25;;;;;;;;;;;5.90;99.90;;;;;;5023471;28;19917;-62
2024/01/23 04:00:51;;;;;;;;;;;5.90;99.90;;;;;;5022972;28;20367;-62
2024/01/23 04:03:16;;;;;;;;;;;6.00;99.90;;;;;;5022985;28;19913;-62
2024/01/23 04:05:42;;;;;;;;;;;5.90;99.90;;;;;;5023173;28;19909;-61
2024/01/23 04:08:08;;;;;;;;;;;5.90;99.90;;;;;;5004872;28;19914;-62
2024/01/23 04:10:33;;;;;;;;;;;5.90;99.90;;;;;;5027155;28;19942;-62
2024/01/23 04:12:59;;;;;;;;;;;5.90;99.90;;;;;;5025781;28;19917;-62
2024/01/23 04:15:24;;;;;;;;;;;5.90;99.90;;;;;;5022976;28;20009;-62
2024/01/23 04:17:50;;;;;;;;;;;5.90;99.90;;;;;;5022960;28;20262;-62
2024/01/23 04:20:16;;;;;;;;;;;5.90;99.90;;;;;;5022209;28;19924;-62
2024/01/23 04:22:41;;;;;;;;;;;5.90;99.90;;;;;;5022826;28;19909;-62
2024/01/23 04:25:09;;;;;;;;;;;5.90;99.90;;;;;;5037209;28;20269;-62
2024/01/23 04:27:35;;;;;;;;;;;5.90;99.90;;;;;;5022623;28;20073;-61
2024/01/23 04:30:00;;;;;;;;;;;5.90;99.90;;;;;;5022045;28;19963;-62
2024/01/23 04:32:26;;;;;;;;;;;5.90;99.90;;;;;;5022484;28;20031;-62
2024/01/23 04:34:51;;;;;;;;;;;5.90;99.90;;;;;;5022469;28;20024;-62
2024/01/23 04:37:17;;;;;;;;;;;5.90;99.90;;;;;;5022030;28;19913;-62
2024/01/23 04:39:42;;;;;;;;;;;5.90;99.90;;;;;;5022319;28;19921;-62
2024/01/23 04:42:08;;;;;;;;;;;5.90;99.90;;;;;;5021847;28;20326;-61
2024/01/23 04:44:33;;;;;;;;;;;5.90;99.90;;;;;;5022309;28;20577;-62
2024/01/23 04:46:59;;;;;;;;;;;5.90;99.90;;;;;;5021484;28;20362;-62
2024/01/23 04:49:24;;;;;;;;;;;5.90;99.90;;;;;;5021949;28;19945;-61
2024/01/23 04:51:50;;;;;;;;;;;5.90;99.90;;;;;;5021791;28;20007;-62
2024/01/23 04:54:15;;;;;;;;;;;5.80;99.90;;;;;;5021025;28;19928;-62
2024/01/23 04:56:41;;;;;;;;;;;5.80;99.90;;;;;;5022165;28;19920;-62
2024/01/23 04:59:06;;;;;;;;;;;5.80;99.90;;;;;;5021736;28;20204;-62
2024/01/23 05:01:32;;;;;;;;;;;5.80;99.90;;;;;;5022149;28;19974;-62
2024/01/23 05:03:57;;;;;;;;;;;5.90;99.90;;;;;;5021706;28;19994;-62
2024/01/23 05:06:23;;;;;;;;;;;5.80;99.90;;;;;;5021992;28;19945;-62
2024/01/23 05:08:49;;;;;;;;;;;5.80;99.90;;;;;;5021817;28;20000;-62
2024/01/23 05:11:14;;;;;;;;;;;5.80;99.90;;;;;;5021421;28;20113;-62
2024/01/23 05:13:43;;;;;;;;;;;5.80;99.90;;;;;;5036974;28;19913;-62
2024/01/23 05:16:08;;;;;;;;;;;5.80;99.90;;;;;;5021609;28;19947;-62
2024/01/23 05:18:34;;;;;;;;;;;5.80;99.90;;;;;;5026858;28;19917;-62
2024/01/23 05:20:59;;;;;;;;;;;5.80;99.90;;;;;;5024398;28;19982;-62
2024/01/23 05:23:25;;;;;;;;;;;5.80;99.90;;;;;;5037038;28;20424;-62
2024/01/23 05:25:51;;;;;;;;;;;5.80;99.90;;;;;;5021439;28;19913;-61
2024/01/23 05:28:16;;;;;;;;;;;5.80;99.90;;;;;;5021573;28;20456;-62
2024/01/23 05:30:42;;;;;;;;;;;5.70;99.90;;;;;;5021530;28;19924;-62
2024/01/23 05:33:07;;;;;;;;;;;5.70;99.90;;;;;;5021699;28;19959;-62
2024/01/23 05:35:33;;;;;;;;;;;5.70;99.90;;;;;;5021541;28;19913;-62
2024/01/23 05:37:59;;;;;;;;;;;5.70;99.90;;;;;;5021732;28;19920;-62
2024/01/23 05:40:24;;;;;;;;;;;5.70;99.90;;;;;;5021812;28;19913;-61
2024/01/23 05:42:52;;;;;;;;;;;5.70;99.90;;;;;;5020877;28;20301;-62
2024/01/23 05:45:17;;;;;;;;;;;5.70;99.90;;;;;;5036486;28;20731;-62
2024/01/23 05:47:43;;;;;;;;;;;5.70;99.90;;;;;;5021759;28;19924;-62
2024/01/23 05:50:08;;;;;;;;;;;5.70;99.90;;;;;;5024617;28;20393;-61
2024/01/23 05:52:34;;;;;;;;;;;5.70;99.90;;;;;;5025103;28;20593;-62
2024/01/23 05:55:00;;;;;;;;;;;5.70;99.90;;;;;;5024452;28;20367;-62
2024/01/23 05:57:26;;;;;;;;;;;5.70;99.90;;;;;;5025122;28;19917;-61
2024/01/23 05:59:52;;;;;;;;;;;5.70;99.90;;;;;;5039864;28;19921;-62
2024/01/23 06:02:17;;;;;;;;;;;5.70;99.90;;;;;;5006306;28;20024;-62
2024/01/23 06:04:43;;;;;;;;;;;5.70;99.90;;;;;;5024431;28;19932;-61
2024/01/23 06:07:08;;;;;;;;;;;5.70;99.90;;;;;;5024713;28;20239;-62
2024/01/23 06:09:34;;;;;;;;;;;5.70;99.90;;;;;;5024448;28;19917;-61
2024/01/23 06:11:59;;;;;;;;;;;5.60;99.90;;;;;;5024589;28;19913;-62
2024/01/23 06:14:25;;;;;;;;;;;5.60;99.90;;;;;;5024806;28;19913;-62
2024/01/23 06:16:50;;;;;;;;;;;5.60;99.90;;;;;;5024667;28;19921;-61
2024/01/23 06:19:17;;;;;;;;;;;5.60;99.90;;;;;;5026817;28;19960;-61
2024/01/23 06:21:43;;;;;;;;;;;5.60;99.90;;;;;;5006765;28;19915;-62
2024/01/23 06:24:09;;;;;;;;;;;5.60;99.90;;;;;;5024295;28;19913;-61
2024/01/23 06:26:35;;;;;;;;;;;5.60;99.90;;;;;;5024727;28;19913;-62
2024/01/23 06:29:01;;;;;;;;;;;5.60;99.90;;;;;;5024372;28;20478;-62
2024/01/23 06:31:27;;;;;;;;;;;5.60;99.90;;;;;;5024529;28;19913;-61
2024/01/23 06:33:53;;;;;;;;;;;5.50;99.90;;;;;;5024709;28;20004;-62
2024/01/23 06:36:19;;;;;;;;;;;5.50;99.90;;;;;;5024357;28;19916;-62
2024/01/23 06:38:44;;;;;;;;;;;5.50;99.90;;;;;;5024614;28;20322;-61
2024/01/23 06:41:10;;;;;;;;;;;5.50;99.90;;;;;;5023906;28;19923;-62
2024/01/23 06:43:35;;;;;;;;;;;5.50;99.90;;;;;;5024491;28;19928;-62
2024/01/23 06:46:01;;;;;;;;;;;5.50;99.90;;;;;;5024137;28;19919;-62
2024/01/23 06:48:26;;;;;;;;;;;5.50;99.90;;;;;;5024395;28;20050;-62
2024/01/23 06:50:52;;;;;;;;;;;5.50;99.90;;;;;;5023820;28;19917;-62
2024/01/23 06:53:17;;;;;;;;;;;5.50;99.90;;;;;;5024085;28;19917;-61
2024/01/23 06:55:44;;;;;;;;;;;5.40;99.90;;;;;;5024116;28;19921;-61
2024/01/23 06:58:09;;;;;;;;;;;5.40;99.90;;;;;;5024217;28;19923;-62
2024/01/23 07:00:35;;;;;;;;;;;5.40;99.90;;;;;;5022613;28;19913;-62
2024/01/23 07:03:01;;;;;;;;;;;5.50;99.90;;;;;;5024018;28;19924;-61
2024/01/23 07:05:26;;;;;;;;;;;5.40;99.90;;;;;;5024265;28;19916;-62
2024/01/23 07:07:53;;;;;;;;;;;5.40;99.90;;;;;;5023891;28;20059;-61
2024/01/23 07:10:19;;;;;;;;;;;5.40;99.90;;;;;;5023383;28;20410;-62
2024/01/23 07:12:44;;;;;;;;;;;5.40;99.90;;;;;;5023952;28;20019;-62
2024/01/23 07:15:10;;;;;;;;;;;5.40;99.90;;;;;;5005744;28;19946;-62
2024/01/23 07:17:35;;;;;;;;;;;5.40;99.90;;;;;;5024361;28;19917;-62
2024/01/23 07:20:01;;;;;;;;;;;5.40;99.90;;;;;;5023375;28;19909;-61
2024/01/23 07:22:26;;;;;;;;;;;5.40;99.90;;;;;;5006347;28;19909;-62
2024/01/23 07:24:52;;;;;;;;;;;5.40;99.90;;;;;;5023774;28;19941;-61
2024/01/23 07:27:19;;;;;;;;;;;5.40;99.90;;;;;;5023586;28;20802;-61
2024/01/23 07:29:45;;;;;;;;;;;5.40;99.90;;;;;;5023559;28;20070;-62
2024/01/23 07:32:11;;;;;;;;;;;5.40;99.90;;;;;;5023633;28;20000;-61
2024/01/23 07:34:36;;;;;;;;;;;5.40;99.90;;;;;;5023680;28;19909;-61
2024/01/23 07:37:02;;;;;;;;;;;5.40;99.90;;;;;;5023799;28;19909;-62
2024/01/23 07:39:28;;;;;;;;;;;5.40;99.90;;;;;;5023785;28;19921;-62
2024/01/23 07:41:54;;;;;;;;;;;5.40;99.90;;;;;;5023616;28;20008;-62
2024/01/23 07:44:19;;;;;;;;;;;5.30;99.90;;;;;;5023447;28;20058;-62
2024/01/23 07:46:47;;;;;;;;;;;5.40;99.90;;;;;;5023817;28;20093;-62
2024/01/23 07:49:13;;;;;;;;;;;5.30;99.90;;;;;;5023171;28;19917;-61
2024/01/23 07:51:45;;;;;;;;;;;5.30;99.90;;;;;;5023143;28;20298;-62
2024/01/23 07:54:10;;;;;;;;;;;5.30;99.90;;;;;;5037867;28;19913;-62
2024/01/23 07:56:36;;;;;;;;;;;5.40;99.90;;;;;;5023231;28;19913;-61
2024/01/23 07:59:02;;;;;;;;;;;5.30;99.90;;;;;;5022668;28;20571;-62
2024/01/23 08:01:27;;;;;;;;;;;5.30;99.90;;;;;;5023166;28;19921;-62
2024/01/23 08:03:53;;;;;;;;;;;5.30;99.90;;;;;;5023248;28;19913;-61
2024/01/23 08:06:19;;;;;;;;;;;5.30;99.90;;;;;;5023029;28;19917;-62
2024/01/23 08:08:44;;;;;;;;;;;5.30;99.90;;;;;;5005217;28;19921;-62
2024/01/23 08:11:13;;;;;;;;;;;5.30;99.90;;;;;;5037247;28;20440;-62
2024/01/23 08:13:38;;;;;;;;;;;5.30;99.90;;;;;;5023062;28;20056;-62
2024/01/23 08:16:07;;;;;;;;;;;5.30;99.90;;;;;;5022688;28;20133;-62
2024/01/23 08:18:33;;;;;;;;;;;5.30;99.90;;;;;;5024008;28;19917;-62
2024/01/23 08:20:58;;;;;;;;;;;5.30;99.90;;;;;;5025881;28;19913;-62
2024/01/23 08:23:24;;;;;;;;;;;5.30;99.90;;;;;;5022953;28;19913;-61
2024/01/23 08:25:49;;;;;;;;;;;5.30;99.90;;;;;;5022626;28;19913;-62
2024/01/23 08:28:15;;;;;;;;;;;5.30;99.90;;;;;;5022707;28;19913;-61
2024/01/23 08:30:40;;;;;;;;;;;5.30;99.90;;;;;;5022473;28;19931;-61
2024/01/23 08:33:06;;;;;;;;;;;5.30;99.90;;;;;;5022545;28;20024;-62
2024/01/23 08:35:31;;;;;;;;;;;5.30;99.90;;;;;;5022983;28;20499;-62
2024/01/23 08:37:57;;;;;;;;;;;5.30;99.90;;;;;;5022776;28;20338;-62
2024/01/23 08:40:22;;;;;;;;;;;5.30;99.90;;;;;;5022115;28;19921;-62
2024/01/23 08:42:48;;;;;;;;;;;5.30;99.90;;;;;;5037696;28;19919;-62
2024/01/23 08:45:14;;;;;;;;;;;5.30;99.90;;;;;;5022241;28;19913;-61
2024/01/23 08:47:39;;;;;;;;;;;5.30;99.90;;;;;;5004886;28;19913;-62
2024/01/23 08:50:05;;;;;;;;;;;5.30;99.90;;;;;;5021836;28;20475;-62
2024/01/23 08:52:31;;;;;;;;;;;5.30;99.90;;;;;;5021844;28;19917;-62
2024/01/23 08:54:56;;;;;;;;;;;5.30;99.90;;;;;;5021563;28;19909;-62
2024/01/23 08:57:23;;;;;;;;;;;5.30;99.90;;;;;;5021540;28;19909;-61
2024/01/23 08:59:49;;;;;;;;;;;5.30;99.90;;;;;;5022181;28;19913;-62
2024/01/23 09:02:14;;;;;;;;;;;5.30;99.90;;;;;;5021934;28;19914;-62
2024/01/23 09:04:40;;;;;;;;;;;5.30;99.90;;;;;;5022184;28;20317;-62
2024/01/23 09:07:05;;;;;;;;;;;5.30;99.90;;;;;;5022299;28;20433;-62
2024/01/23 09:09:31;;;;;;;;;;;5.30;99.90;;;;;;5021840;28;19932;-62
2024/01/23 09:11:56;;;;;;;;;;;5.30;99.90;;;;;;5022062;28;19913;-62
2024/01/23 09:14:22;;;;;;;;;;;5.30;99.90;;;;;;5021953;28;20019;-62
2024/01/23 09:16:47;;;;;;;;;;;5.30;99.90;;;;;;5022345;28;19916;-62
2024/01/23 09:19:13;;;;;;;;;;;5.30;99.90;;;;;;5021330;28;19917;-61
2024/01/23 09:21:39;;;;;;;;;;;5.30;99.90;;;;;;5022326;28;19996;-62
2024/01/23 09:24:05;;;;;;;;;;;5.30;99.90;;;;;;5039826;28;20020;-62
2024/01/23 09:26:30;;;;;;;;;;;5.40;99.90;;;;;;5025664;28;20285;-62
2024/01/23 09:28:56;;;;;;;;;;;5.40;99.90;;;;;;5025924;28;20418;-61
2024/01/23 09:31:22;;;;;;;;;;;5.40;99.90;;;;;;5025312;28;19917;-62
2024/01/23 09:33:48;;;;;;;;;;;5.40;99.90;;;;;;5025903;28;19989;-62
2024/01/23 09:36:14;;;;;;;;;;;5.40;99.90;;;;;;5025346;28;19913;-62
2024/01/23 09:38:40;;;;;;;;;;;5.40;99.90;;;;;;5025936;28;19913;-61
2024/01/23 09:41:12;;;;;;;;;;;5.40;99.90;;;;;;5025266;28;19913;-61
2024/01/23 09:43:41;;;;;;;;;;;5.40;99.90;;;;;;5025888;28;19954;-61
2024/01/23 09:46:08;;;;;;;;;;;5.40;99.90;;;;;;5025454;28;19917;-62
2024/01/23 09:48:34;;;;;;;;;;;5.40;99.90;;;;;;5025824;28;19913;-61
2024/01/23 09:50:59;;;;;;;;;;;5.40;99.90;;;;;;5007582;28;19977;-62
2024/01/23 09:53:25;;;;;;;;;;;5.40;99.90;;;;;;5025276;28;20025;-62
2024/01/23 09:55:50;;;;;;;;;;;5.40;99.90;;;;;;5025248;28;19983;-62
2024/01/23 09:58:16;;;;;;;;;;;5.40;99.90;;;;;;5025325;28;20012;-62
2024/01/23 10:00:41;;;;;;;;;;;5.50;99.90;;;;;;5040541;28;19916;-62
2024/01/23 10:03:08;;;;;;;;;;;5.50;99.90;;;;;;5025316;28;20319;-61
2024/01/23 10:05:35;;;;;;;;;;;5.50;99.90;;;;;;5018391;28;19920;-61
2024/01/23 10:08:01;;;;;;;;;;;5.50;99.90;;;;;;5025401;28;19914;-62
2024/01/23 10:10:29;;;;;;;;;;;5.50;99.90;;;;;;5025169;28;19917;-62
2024/01/23 10:12:54;;;;;;;;;;;5.50;99.90;;;;;;5025428;28;20312;-62
2024/01/23 10:15:23;;;;;;;;;;;5.50;99.90;;;;;;5024949;28;20035;-61
2024/01/23 10:17:48;;;;;;;;;;;5.50;99.90;;;;;;5025438;28;19952;-62
2024/01/23 10:20:15;;;;;;;;;;;5.50;99.90;;;;;;5027100;28;19949;-62
2024/01/23 10:22:43;;;;;;;;;;;5.60;99.90;;;;;;5025051;28;19944;-62
2024/01/23 10:25:10;;;;;;;;;;;5.60;99.90;;;;;;5024403;28;20032;-62
2024/01/23 10:27:35;;;;;;;;;;;5.60;99.90;;;;;;5025025;28;19913;-62
2024/01/23 10:30:01;;;;;;;;;;;5.60;99.90;;;;;;5024235;28;19921;-61
2024/01/23 10:32:28;;;;;;;;;;;5.60;99.90;;;;;;5024922;28;19949;-62
2024/01/23 10:34:54;;;;;;;;;;;5.60;99.90;;;;;;5024428;28;19988;-62
2024/01/23 10:37:21;;;;;;;;;;;5.60;99.90;;;;;;5024396;28;19913;-61
2024/01/23 10:39:51;;;;;;;;;;;5.70;99.90;;;;;;5024422;28;19917;-62
2024/01/23 10:42:17;;;;;;;;;;;5.70;99.90;;;;;;5024325;28;19917;-62
2024/01/23 10:44:44;;;;;;;;;;;5.70;99.90;;;;;;5024652;28;19919;-62
2024/01/23 10:47:09;;;;;;;;;;;5.70;99.90;;;;;;5024671;28;20015;-61
2024/01/23 10:49:35;;;;;;;;;;;5.70;99.90;;;;;;5024316;28;20028;-62
2024/01/23 10:52:03;;;;;;;;;;;5.70;99.90;;;;;;5017404;28;19913;-62
2024/01/23 10:54:30;;;;;;;;;;;5.70;99.90;;;;;;5016522;28;19919;-62
2024/01/23 10:56:56;;;;;;;;;;;5.70;99.90;;;;;;5024789;28;20579;-62
2024/01/23 10:59:25;;;;;;;;;;;5.80;99.90;;;;;;5024141;28;19917;-62
2024/01/23 11:01:54;;;;;;;;;;;5.80;99.90;;;;;;5024226;28;19919;-62
2024/01/23 11:04:20;;;;;;;;;;;5.80;99.90;;;;;;5024072;28;19913;-61
2024/01/23 11:06:49;;;;;;;;;;;5.80;99.90;;;;;;5024409;28;19923;-62
2024/01/23 11:09:17;;;;;;;;;;;5.80;99.90;;;;;;5023701;28;19913;-62
2024/01/23 11:12:03;;;;;;;;;;;5.80;99.90;;;;;;5024228;28;20650;-61
2024/01/23 11:14:30;;;;;;;;;;;5.90;99.90;;;;;;5024191;28;19918;-62
2024/01/23 11:17:03;;;;;;;;;;;5.90;99.90;;;;;;5024706;28;20635;-62
2024/01/23 11:19:28;;;;;;;;;;;5.90;99.90;;;;;;5024140;28;19913;-61
2024/01/23 11:22:03;;;;;;;;;;;5.90;99.90;;;;;;5006624;28;19936;-62
2024/01/23 11:24:38;;;;;;;;;;;6.00;99.90;;;;;;5023637;28;19956;-62
2024/01/23 11:27:04;;;;;;;;;;;6.00;99.90;;;;;;5023913;28;19999;-62
2024/01/23 11:29:30;;;;;;;;;;;6.00;99.90;;;;;;5023694;28;20023;-62
2024/01/23 11:31:56;;;;;;;;;;;6.00;99.90;;;;;;5023878;28;20698;-62
2024/01/23 11:34:29;;;;;;;;;;;6.10;99.90;;;;;;5023504;28;19917;-62
2024/01/23 11:36:55;;;;;;;;;;;6.10;99.90;;;;;;5023940;28;19920;-62
2024/01/23 11:39:27;;;;;;;;;;;6.20;99.90;;;;;;5023293;28;19982;-62
2024/01/23 11:41:55;;;;;;;;;;;6.30;99.90;;;;;;5023246;28;20759;-62
2024/01/23 11:44:21;;;;;;;;;;;6.30;99.90;;;;;;5023381;28;19913;-62
2024/01/23 11:46:47;;;;;;;;;;;6.30;99.90;;;;;;5022981;28;19940;-62
2024/01/23 11:49:13;;;;;;;;;;;6.30;99.90;;;;;;5023102;28;19989;-62
2024/01/23 11:51:39;;;;;;;;;;;6.40;99.90;;;;;;5023549;28;19913;-62
2024/01/23 11:54:09;;;;;;;;;;;6.40;99.90;;;;;;5023190;28;19919;-62
2024/01/23 11:56:39;;;;;;;;;;;6.40;99.90;;;;;;5023679;28;19913;-62
2024/01/23 11:59:04;;;;;;;;;;;6.40;99.90;;;;;;5023184;28;20546;-62
2024/01/23 12:01:30;;;;;;;;;;;6.40;99.90;;;;;;5023135;28;20064;-62
2024/01/23 12:03:56;;;;;;;;;;;6.40;99.90;;;;;;5023269;28;19913;-62
2024/01/23 12:06:22;;;;;;;;;;;6.40;99.90;;;;;;5023262;28;19966;-62
2024/01/23 12:08:48;;;;;;;;;;;6.40;99.90;;;;;;5023120;28;20622;-62
2024/01/23 12:11:15;;;;;;;;;;;6.40;99.90;;;;;;5022563;28;19917;-62
2024/01/23 12:13:43;;;;;;;;;;;6.50;99.90;;;;;;5023259;28;19920;-62
2024/01/23 12:16:08;;;;;;;;;;;6.50;99.90;;;;;;5023074;28;19913;-61
2024/01/23 12:18:34;;;;;;;;;;;6.50;99.90;;;;;;5023162;28;19965;-61
2024/01/23 12:21:00;;;;;;;;;;;6.50;99.90;;;;;;5023057;28;19984;-61
2024/01/23 12:23:26;;;;;;;;;;;6.50;99.90;;;;;;5023150;28;20683;-61
2024/01/23 12:25:51;;;;;;;;;;;6.60;99.90;;;;;;5025871;28;19926;-61
2024/01/23 12:28:18;;;;;;;;;;;6.60;99.90;;;;;;5022812;28;20330;-61
2024/01/23 12:30:46;;;;;;;;;;;6.60;99.90;;;;;;5022770;28;20012;-62
2024/01/23 12:33:16;;;;;;;;;;;6.60;99.90;;;;;;5022835;28;19921;-61
2024/01/23 12:35:42;;;;;;;;;;;6.60;99.90;;;;;;5022902;28;19936;-62
2024/01/23 12:38:07;;;;;;;;;;;6.60;99.90;;;;;;5022872;28;19910;-62
2024/01/23 12:40:33;;;;;;;;;;;6.70;99.90;;;;;;5022552;28;19996;-61
2024/01/23 12:42:58;;;;;;;;;;;6.70;99.90;;;;;;5023203;28;19962;-61
2024/01/23 12:45:25;;;;;;;;;;;6.70;99.90;;;;;;5022364;28;20319;-61
2024/01/23 12:47:51;;;;;;;;;;;6.80;99.90;;;;;;5022998;28;19913;-61
2024/01/23 12:50:19;;;;;;;;;;;6.80;99.90;;;;;;5022321;28;19921;-62
2024/01/23 12:52:46;;;;;;;;;;;6.80;99.90;;;;;;5022464;28;19913;-61
2024/01/23 12:55:12;;;;;;;;;;;6.80;99.90;;;;;;5021864;28;20021;-62
2024/01/23 12:57:37;;;;;;;;;;;6.80;99.90;;;;;;5022600;28;19925;-61
2024/01/23 13:00:04;;;;;;;;;;;6.80;99.90;;;;;;5019999;28;19920;-61
2024/01/23 13:02:29;;;;;;;;;;;6.90;99.90;;;;;;5014335;28;19973;-61
2024/01/23 13:04:55;;;;;;;;;;;6.90;99.90;;;;;;5022349;28;19921;-62
2024/01/23 13:07:20;;;;;;;;;;;6.90;99.90;;;;;;5012400;28;19914;-62
2024/01/23 13:09:46;;;;;;;;;;;6.90;99.90;;;;;;5021943;28;19917;-61
2024/01/23 13:12:12;;;;;;;;;;;6.90;99.90;;;;;;5022343;28;20012;-61
2024/01/23 13:14:37;;;;;;;;;;;6.90;99.90;;;;;;5027199;28;19956;-61
2024/01/23 13:17:03;;;;;;;;;;;6.90;99.90;;;;;;5026023;28;19919;-61
2024/01/23 13:19:29;;;;;;;;;;;6.90;99.90;;;;;;5020909;28;19913;-61
2024/01/23 13:21:54;;;;;;;;;;;6.90;99.90;;;;;;5022256;28;20019;-61
2024/01/23 13:24:20;;;;;;;;;;;6.90;99.90;;;;;;5021729;28;20332;-61
2024/01/23 13:26:45;;;;;;;;;;;6.90;99.90;;;;;;5022366;28;19962;-62
2024/01/23 13:29:11;;;;;;;;;;;6.90;99.90;;;;;;5021681;28;20364;-62
2024/01/23 13:31:37;;;;;;;;;;;6.90;99.90;;;;;;5021492;28;19924;-61
2024/01/23 13:34:03;;;;;;;;;;;6.90;99.90;;;;;;5021884;28;19959;-62
2024/01/23 13:36:29;;;;;;;;;;;6.90;99.90;;;;;;5022007;28;20004;-61
2024/01/23 13:38:54;;;;;;;;;;;6.90;99.90;;;;;;5036732;28;20380;-62
2024/01/23 13:41:20;;;;;;;;;;;6.90;99.90;;;;;;5021291;28;19920;-62
2024/01/23 13:43:46;;;;;;;;;;;6.90;99.90;;;;;;5021761;28;19925;-62
2024/01/23 13:46:11;;;;;;;;;;;6.90;99.90;;;;;;5021722;28;19920;-61
2024/01/23 13:48:37;;;;;;;;;;;6.90;99.90;;;;;;5021773;28;19913;-62
2024/01/23 13:51:03;;;;;;;;;;;6.90;99.90;;;;;;5021640;28;19982;-61
2024/01/23 13:53:29;;;;;;;;;;;7.00;99.90;;;;;;5013925;28;19999;-62
2024/01/23 13:55:54;;;;;;;;;;;7.00;99.90;;;;;;5021880;28;20740;-62
2024/01/23 13:58:20;;;;;;;;;;;7.00;99.90;;;;;;5004090;28;19913;-62
2024/01/23 14:00:46;;;;;;;;;;;7.00;99.90;;;;;;5036706;28;20012;-62
2024/01/23 14:03:11;;;;;;;;;;;7.00;99.90;;;;;;5003681;28;19981;-62
2024/01/23 14:05:37;;;;;;;;;;;7.00;99.90;;;;;;5021713;28;19909;-62
2024/01/23 14:08:02;;;;;;;;;;;7.00;99.90;;;;;;5021975;28;19909;-61
2024/01/23 14:10:28;;;;;;;;;;;7.00;99.90;;;;;;5024393;28;19921;-62
2024/01/23 14:12:54;;;;;;;;;;;7.00;99.90;;;;;;5025256;28;20385;-62
2024/01/23 14:15:20;;;;;;;;;;;7.00;99.90;;;;;;5024795;28;19923;-62
2024/01/23 14:17:49;;;;;;;;;;;7.00;99.90;;;;;;5025240;28;19917;-61
2024/01/23 14:20:15;;;;;;;;;;;7.00;99.90;;;;;;5024568;28;20000;-61
2024/01/23 14:22:43;;;;;;;;;;;7.00;99.90;;;;;;5025432;28;19986;-62